createdAt,value
2023-01-25T00:00:28.719Z,87.23
2023-01-25T00:02:56.044Z,60.73
2023-01-25T00:05:23.314Z,71.93
2023-01-25T00:07:50.550Z,72.20
2023-01-25T00:10:18.115Z,62.77
2023-01-25T00:12:46.072Z,77.00
2023-01-25T00:15:13.528Z,69.50
2023-01-25T00:17:40.847Z,68.70
2023-01-25T00:20:09.428Z,76.93
2023-01-25T00:22:36.719Z,68.77
2023-01-25T00:25:04.389Z,73.10
2023-01-25T00:27:31.711Z,58.80
2023-01-25T00:30:17.717Z,61.63
2023-01-25T00:33:24.147Z,82.27
2023-01-25T00:35:51.496Z,54.57
2023-01-25T00:38:30.086Z,40.03
2023-01-25T00:40:58.329Z,44.97
2023-01-25T00:43:25.444Z,49.10
2023-01-25T00:45:59.696Z,43.30
2023-01-25T00:48:26.882Z,59.20
2023-01-25T00:50:53.948Z,59.50
2023-01-25T00:53:21.242Z,58.43
2023-01-25T00:55:52.518Z,59.10
2023-01-25T00:58:19.791Z,44.73
2023-01-25T01:00:47.106Z,44.50
2023-01-25T01:03:15.624Z,54.23
2023-01-25T01:05:42.715Z,31.50
2023-01-25T01:08:10.077Z,45.27
2023-01-25T01:10:37.142Z,40.70
2023-01-25T01:13:04.266Z,34.47
2023-01-25T01:15:31.539Z,37.23
2023-01-25T01:17:58.621Z,49.60
2023-01-25T01:20:26.589Z,23.83
2023-01-25T01:22:54.806Z,40.30
2023-01-25T01:25:22.187Z,42.27
2023-01-25T01:27:49.505Z,37.77
2023-01-25T01:30:17.328Z,33.57
2023-01-25T01:32:44.674Z,35.30
2023-01-25T01:35:12.200Z,30.93
2023-01-25T01:37:42.908Z,33.03
2023-01-25T01:40:15.590Z,36.60
2023-01-25T01:42:59.906Z,38.30
2023-01-25T01:45:52.133Z,35.50
2023-01-25T01:48:28.610Z,40.30
2023-01-25T01:50:59.910Z,33.73
2023-01-25T01:53:29.765Z,38.87
2023-01-25T01:56:01.028Z,40.43
2023-01-25T01:58:28.871Z,48.90
2023-01-25T02:00:56.199Z,38.47
2023-01-25T02:03:24.170Z,48.10
2023-01-25T02:05:55.672Z,44.77
2023-01-25T02:08:26.317Z,31.43
2023-01-25T02:10:54.402Z,38.73
2023-01-25T02:13:22.300Z,33.17
2023-01-25T02:15:51.792Z,37.07
2023-01-25T02:18:19.789Z,36.03
2023-01-25T02:20:50.158Z,39.30
2023-01-25T02:23:24.431Z,45.67
2023-01-25T02:25:52.441Z,23.33
2023-01-25T02:28:23.293Z,38.30
2023-01-25T02:30:50.701Z,38.03
2023-01-25T02:33:18.032Z,35.30
2023-01-25T02:35:48.092Z,26.87
2023-01-25T02:38:17.988Z,34.57
2023-01-25T02:40:49.093Z,26.57
2023-01-25T02:43:17.826Z,30.93
2023-01-25T02:45:49.203Z,30.30
2023-01-25T02:48:16.572Z,29.37
2023-01-25T02:50:44.464Z,33.23
2023-01-25T02:53:11.755Z,32.57
2023-01-25T02:55:38.998Z,23.43
2023-01-25T02:58:06.292Z,31.10
2023-01-25T03:00:34.228Z,31.63
2023-01-25T03:03:01.538Z,27.07
2023-01-25T03:05:28.761Z,30.30
2023-01-25T03:07:56.010Z,33.77
2023-01-25T03:10:23.294Z,32.10
2023-01-25T03:12:50.661Z,24.60
2023-01-25T03:15:18.036Z,29.40
2023-01-25T03:17:45.969Z,42.07
2023-01-25T03:20:13.418Z,33.13
2023-01-25T03:22:40.657Z,31.50
2023-01-25T03:25:09.212Z,30.20
2023-01-25T03:27:36.691Z,33.30
2023-01-25T03:30:05.088Z,36.67
2023-01-25T03:32:32.399Z,27.07
2023-01-25T03:35:00.447Z,39.00
2023-01-25T03:37:30.404Z,33.57
2023-01-25T03:39:57.889Z,36.13
2023-01-25T03:42:25.262Z,31.33
2023-01-25T03:44:52.488Z,34.57
2023-01-25T03:47:19.739Z,29.13
2023-01-25T03:49:46.999Z,30.53
2023-01-25T03:52:14.950Z,35.37
2023-01-25T03:54:42.241Z,36.50
2023-01-25T03:57:09.577Z,36.30
2023-01-25T03:59:36.824Z,33.00
2023-01-25T04:02:04.238Z,28.40
2023-01-25T04:04:31.613Z,33.63
2023-01-25T04:06:58.852Z,33.50
2023-01-25T04:09:27.022Z,32.03
2023-01-25T04:11:54.276Z,27.10
2023-01-25T04:14:35.030Z,35.57
2023-01-25T04:17:10.149Z,31.57
2023-01-25T04:19:37.360Z,41.43
2023-01-25T04:22:04.629Z,35.30
2023-01-25T04:24:32.626Z,34.60
2023-01-25T04:26:59.896Z,42.17
2023-01-25T04:29:40.101Z,36.33
2023-01-25T04:32:08.836Z,37.00
2023-01-25T04:34:36.556Z,38.87
2023-01-25T04:37:03.899Z,84.63
2023-01-25T04:39:31.905Z,35.77
2023-01-25T04:41:59.193Z,27.97
2023-01-25T04:44:26.487Z,54.50
2023-01-25T04:46:53.827Z,65.17
2023-01-25T04:49:21.063Z,23.63
2023-01-25T04:51:48.364Z,28.73
2023-01-25T04:54:15.767Z,54.87
2023-01-25T04:56:43.674Z,48.17
2023-01-25T04:59:11.435Z,44.13
2023-01-25T05:01:38.770Z,35.30
2023-01-25T05:04:06.128Z,40.73
2023-01-25T05:06:33.401Z,35.90
2023-01-25T05:09:00.664Z,29.53
2023-01-25T05:11:27.924Z,39.53
2023-01-25T05:13:55.863Z,51.10
2023-01-25T05:16:23.143Z,32.00
2023-01-25T05:18:50.452Z,32.53
2023-01-25T05:21:35.932Z,34.33
2023-01-25T05:24:03.429Z,46.33
2023-01-25T05:26:48.540Z,37.13
2023-01-25T05:29:16.556Z,88.90
2023-01-25T05:31:43.847Z,71.73
2023-01-25T05:34:11.174Z,58.03
2023-01-25T05:36:38.434Z,77.87
2023-01-25T05:39:06.108Z,48.57
2023-01-25T05:41:33.355Z,40.80
2023-01-25T05:44:00.932Z,37.23
2023-01-25T05:46:29.115Z,46.73
2023-01-25T05:48:56.662Z,63.83
2023-01-25T05:51:24.109Z,36.10
2023-01-25T05:53:53.837Z,61.50
2023-01-25T05:56:21.188Z,36.73
2023-01-25T05:58:52.029Z,34.50
2023-01-25T06:01:19.240Z,48.50
2023-01-25T06:03:47.366Z,40.80
2023-01-25T06:06:14.880Z,38.63
2023-01-25T06:08:42.213Z,30.23
2023-01-25T06:11:11.012Z,27.77
2023-01-25T06:13:38.822Z,29.10
2023-01-25T06:16:06.986Z,38.57
2023-01-25T06:18:35.412Z,39.37
2023-01-25T06:21:04.564Z,32.30
2023-01-25T06:23:32.336Z,34.33
2023-01-25T06:26:00.570Z,30.00
2023-01-25T06:28:31.415Z,29.40
2023-01-25T06:31:05.194Z,43.03
2023-01-25T06:33:32.829Z,29.43
2023-01-25T06:36:02.085Z,30.10
2023-01-25T06:38:29.421Z,28.57
2023-01-25T06:41:00.132Z,36.13
2023-01-25T06:43:27.706Z,33.77
2023-01-25T06:45:58.816Z,47.70
2023-01-25T06:48:26.567Z,37.43
2023-01-25T06:50:58.992Z,31.23
2023-01-25T06:53:28.735Z,45.13
2023-01-25T06:56:00.417Z,39.00
2023-01-25T06:58:28.661Z,44.77
2023-01-25T07:01:00.821Z,41.23
2023-01-25T07:03:28.426Z,40.47
2023-01-25T07:05:58.741Z,34.33
2023-01-25T07:08:26.703Z,30.03
2023-01-25T07:10:55.296Z,33.87
2023-01-25T07:13:22.673Z,33.00
2023-01-25T07:15:54.299Z,31.70
2023-01-25T07:18:21.793Z,34.10
2023-01-25T07:20:49.244Z,40.03
2023-01-25T07:23:16.537Z,48.00
2023-01-25T07:25:49.322Z,28.27
2023-01-25T07:28:17.232Z,61.73
2023-01-25T07:30:44.868Z,30.40
2023-01-25T07:33:12.415Z,24.20
2023-01-25T07:35:39.706Z,29.53
2023-01-25T07:38:07.234Z,34.30
2023-01-25T07:40:34.657Z,29.77
2023-01-25T07:43:02.704Z,35.70
2023-01-25T07:45:30.591Z,29.93
2023-01-25T07:47:59.298Z,34.87
2023-01-25T07:50:27.411Z,38.10
2023-01-25T07:52:54.745Z,33.30
2023-01-25T07:55:22.450Z,28.77
2023-01-25T07:57:53.612Z,35.50
2023-01-25T08:00:23.980Z,39.83
2023-01-25T08:02:52.492Z,32.93
2023-01-25T08:05:19.974Z,39.17
2023-01-25T08:07:47.960Z,33.03
2023-01-25T08:10:15.481Z,38.90
2023-01-25T08:12:46.026Z,37.93
2023-01-25T08:15:13.529Z,45.70
2023-01-25T08:17:41.504Z,39.67
2023-01-25T08:20:10.064Z,38.87
2023-01-25T08:22:37.302Z,46.10
2023-01-25T08:25:05.354Z,37.67
2023-01-25T08:27:32.569Z,33.90
2023-01-25T08:29:59.912Z,32.50
2023-01-25T08:32:27.199Z,30.33
2023-01-25T08:34:55.173Z,32.50
2023-01-25T08:37:22.468Z,33.47
2023-01-25T08:39:49.741Z,37.37
2023-01-25T08:42:16.960Z,31.23
2023-01-25T08:44:44.233Z,35.90
2023-01-25T08:47:11.495Z,30.67
2023-01-25T08:49:38.746Z,39.50
2023-01-25T08:52:06.655Z,33.60
2023-01-25T08:54:33.957Z,32.60
2023-01-25T08:57:01.805Z,37.43
2023-01-25T08:59:29.296Z,44.40
2023-01-25T09:01:56.523Z,51.20
2023-01-25T09:04:27.613Z,37.10
2023-01-25T09:06:54.918Z,42.43
2023-01-25T09:09:24.294Z,37.33
2023-01-25T09:11:51.556Z,33.63
2023-01-25T09:14:18.825Z,34.13
2023-01-25T09:16:46.058Z,31.93
2023-01-25T09:19:13.507Z,35.57
2023-01-25T09:21:41.067Z,38.73
2023-01-25T09:24:08.894Z,39.07
2023-01-25T09:26:38.850Z,38.43
2023-01-25T09:29:07.159Z,32.20
2023-01-25T09:31:35.065Z,38.23
2023-01-25T09:34:02.776Z,35.90
2023-01-25T09:36:30.033Z,36.57
2023-01-25T09:38:57.721Z,38.77
2023-01-25T09:41:54.760Z,47.77
2023-01-25T09:44:38.870Z,48.87
2023-01-25T09:47:17.403Z,43.70
2023-01-25T09:50:00.162Z,46.43
2023-01-25T09:52:50.083Z,48.70
2023-01-25T09:55:21.675Z,58.03
2023-01-25T09:57:53.240Z,48.13
2023-01-25T10:00:26.543Z,52.10
2023-01-25T10:02:58.141Z,42.97
2023-01-25T10:05:30.786Z,39.73
2023-01-25T10:08:02.158Z,43.27
2023-01-25T10:10:35.292Z,41.63
2023-01-25T10:13:02.992Z,51.93
2023-01-25T10:15:34.715Z,52.87
2023-01-25T10:18:09.793Z,39.17
2023-01-25T10:20:43.844Z,39.83
2023-01-25T10:23:32.561Z,40.20
2023-01-25T10:26:01.019Z,31.07
2023-01-25T10:28:39.336Z,41.57
2023-01-25T10:31:14.864Z,45.27
2023-01-25T10:33:44.917Z,37.93
2023-01-25T10:36:14.964Z,45.07
2023-01-25T10:38:44.672Z,43.40
2023-01-25T10:41:18.258Z,48.67
2023-01-25T10:43:45.682Z,33.43
2023-01-25T10:46:21.343Z,34.37
2023-01-25T10:48:48.666Z,33.13
2023-01-25T10:51:31.120Z,31.30
2023-01-25T10:54:03.528Z,33.23
2023-01-25T10:56:33.962Z,28.47
2023-01-25T10:59:15.986Z,34.10
2023-01-25T11:01:44.125Z,32.10
2023-01-25T11:04:34.409Z,22.67
2023-01-25T11:07:02.898Z,29.37
2023-01-25T11:09:35.741Z,19.60
2023-01-25T11:12:06.659Z,23.13
2023-01-25T11:14:34.442Z,22.67
2023-01-25T11:17:05.191Z,26.10
2023-01-25T11:19:34.862Z,22.33
2023-01-25T11:22:04.440Z,19.27
2023-01-25T11:24:32.734Z,26.37
2023-01-25T11:27:17.971Z,24.37
2023-01-25T11:29:46.457Z,24.80
2023-01-25T11:32:21.760Z,22.83
2023-01-25T11:34:50.404Z,18.90
2023-01-25T11:37:32.557Z,19.13
2023-01-25T11:40:12.357Z,29.30
2023-01-25T11:42:47.746Z,22.90
2023-01-25T11:45:55.610Z,22.73
2023-01-25T11:48:46.389Z,23.60
2023-01-25T11:51:26.177Z,21.50
2023-01-25T11:54:16.381Z,22.20
2023-01-25T11:56:54.552Z,23.73
2023-01-25T11:59:45.688Z,25.53
2023-01-25T12:02:31.896Z,26.93
2023-01-25T12:05:31.319Z,24.00
2023-01-25T12:08:12.040Z,20.63
2023-01-25T12:10:50.073Z,26.33
2023-01-25T12:13:24.076Z,21.20
2023-01-25T12:16:12.895Z,23.43
2023-01-25T12:19:13.242Z,24.80
2023-01-25T12:22:00.061Z,19.13
2023-01-25T12:24:40.686Z,20.23
2023-01-25T12:27:18.955Z,19.10
2023-01-25T12:29:51.336Z,16.20
2023-01-25T12:32:23.777Z,32.30
2023-01-25T12:34:57.565Z,27.90
2023-01-25T12:37:31.876Z,22.00
2023-01-25T12:40:02.732Z,20.47
2023-01-25T12:42:35.947Z,15.20
2023-01-25T12:45:10.301Z,26.43
2023-01-25T12:47:41.775Z,27.97
2023-01-25T12:50:16.941Z,20.93
2023-01-25T12:52:51.108Z,22.60
2023-01-25T12:55:19.294Z,25.27
2023-01-25T12:57:56.238Z,22.40
2023-01-25T13:00:30.370Z,20.07
2023-01-25T13:03:16.534Z,26.70
2023-01-25T13:05:50.878Z,21.47
2023-01-25T13:08:31.788Z,25.27
2023-01-25T13:11:11.847Z,23.40
2023-01-25T13:16:42.440Z,18.67
2023-01-25T13:19:38.327Z,21.07
2023-01-25T13:22:05.973Z,21.90
2023-01-25T13:24:54.755Z,19.27
2023-01-25T13:27:27.175Z,16.10
2023-01-25T13:29:59.051Z,23.60
2023-01-25T13:33:06.272Z,27.53
2023-01-25T13:35:46.531Z,25.30
2023-01-25T13:38:35.000Z,25.33
2023-01-25T13:41:16.026Z,23.40
2023-01-25T13:43:47.416Z,27.30
2023-01-25T13:46:18.793Z,25.67
2023-01-25T13:48:59.547Z,25.30
2023-01-25T13:51:30.554Z,22.40
2023-01-25T13:53:59.354Z,20.43
2023-01-25T13:56:30.522Z,24.90
2023-01-25T13:58:57.995Z,19.00
2023-01-25T14:01:26.410Z,24.07
2023-01-25T14:03:58.787Z,26.17
2023-01-25T14:06:29.425Z,26.90
2023-01-25T14:08:59.511Z,19.17
2023-01-25T14:11:29.523Z,23.90
2023-01-25T14:13:58.895Z,25.77
2023-01-25T14:16:29.150Z,25.30
2023-01-25T14:18:58.435Z,17.03
2023-01-25T14:21:25.815Z,23.27
2023-01-25T14:23:53.158Z,28.80
2023-01-25T14:26:23.673Z,32.13
2023-01-25T14:29:01.167Z,27.70
2023-01-25T14:31:33.406Z,23.17
2023-01-25T14:34:03.399Z,26.23
2023-01-25T14:36:33.467Z,25.43
2023-01-25T14:39:02.525Z,25.60
2023-01-25T14:41:34.207Z,26.63
2023-01-25T14:44:04.743Z,22.97
2023-01-25T14:46:34.053Z,22.00
2023-01-25T14:49:24.368Z,17.90
2023-01-25T14:51:57.418Z,31.23
2023-01-25T14:54:27.244Z,22.73
2023-01-25T14:56:56.937Z,26.50
2023-01-25T14:59:32.212Z,22.70
2023-01-25T15:02:02.415Z,25.13
2023-01-25T15:04:30.869Z,25.97
2023-01-25T15:07:01.102Z,27.80
2023-01-25T15:09:36.254Z,26.13
2023-01-25T15:12:05.835Z,29.67
2023-01-25T15:14:46.814Z,32.60
2023-01-25T15:17:39.065Z,41.87
2023-01-25T15:20:26.846Z,36.40
2023-01-25T15:22:55.668Z,31.03
2023-01-25T15:25:24.216Z,30.20
2023-01-25T15:27:52.259Z,33.13
2023-01-25T15:30:20.601Z,29.03
2023-01-25T15:32:48.464Z,31.30
2023-01-25T15:35:18.392Z,27.93
2023-01-25T15:37:48.341Z,33.27
2023-01-25T15:40:17.115Z,29.83
2023-01-25T15:42:44.429Z,26.87
2023-01-25T15:45:11.999Z,21.67
2023-01-25T15:47:40.025Z,26.13
2023-01-25T15:50:17.922Z,29.73
2023-01-25T15:52:45.242Z,31.70
2023-01-25T15:55:13.879Z,27.20
2023-01-25T15:57:42.791Z,26.80
2023-01-25T16:00:18.048Z,29.47
2023-01-25T16:02:46.440Z,30.67
2023-01-25T16:05:13.838Z,35.17
2023-01-25T16:07:43.796Z,29.97
2023-01-25T16:10:20.706Z,34.80
2023-01-25T16:12:48.315Z,38.27
2023-01-25T16:15:15.773Z,35.07
2023-01-25T16:17:43.348Z,34.60
2023-01-25T16:20:18.183Z,31.10
2023-01-25T16:22:45.833Z,26.73
2023-01-25T16:25:13.684Z,41.20
2023-01-25T16:27:40.938Z,32.13
2023-01-25T16:30:17.945Z,28.20
2023-01-25T16:32:46.003Z,35.53
2023-01-25T16:35:14.359Z,35.90
2023-01-25T16:37:41.935Z,32.10
2023-01-25T16:40:21.397Z,41.13
2023-01-25T16:42:48.855Z,43.50
2023-01-25T16:45:18.567Z,36.67
2023-01-25T16:47:46.211Z,29.37
2023-01-25T16:50:15.470Z,39.03
2023-01-25T16:52:44.259Z,27.80
2023-01-25T16:55:12.652Z,27.90
2023-01-25T16:57:40.332Z,26.23
2023-01-25T17:00:10.390Z,26.57
2023-01-25T17:02:40.076Z,35.57
2023-01-25T17:05:10.504Z,25.37
2023-01-25T17:07:38.468Z,31.10
2023-01-25T17:10:07.695Z,27.30
2023-01-25T17:12:35.216Z,23.63
2023-01-25T17:15:03.492Z,31.03
2023-01-25T17:17:31.049Z,31.43
2023-01-25T17:19:58.326Z,34.50
2023-01-25T17:22:25.586Z,34.30
2023-01-25T17:24:55.011Z,36.50
2023-01-25T17:27:23.454Z,29.30
2023-01-25T17:29:50.772Z,33.00
2023-01-25T17:32:18.057Z,31.00
2023-01-25T17:34:45.415Z,36.07
2023-01-25T17:37:12.679Z,35.83
2023-01-25T17:39:39.960Z,46.77
2023-01-25T17:42:10.245Z,35.80
2023-01-25T17:44:37.509Z,46.53
2023-01-25T17:47:04.854Z,49.27
2023-01-25T17:49:32.138Z,48.77
2023-01-25T17:52:01.435Z,36.70
2023-01-25T17:54:28.682Z,39.50
2023-01-25T17:56:55.953Z,43.17
2023-01-25T17:59:24.207Z,45.57
2023-01-25T18:01:51.504Z,35.80
2023-01-25T18:04:19.708Z,37.37
2023-01-25T18:06:47.189Z,41.10
2023-01-25T18:09:14.584Z,39.30
2023-01-25T18:11:41.843Z,43.47
2023-01-25T18:14:14.458Z,48.47
2023-01-25T18:16:43.179Z,40.03
2023-01-25T18:19:10.899Z,47.90
2023-01-25T18:21:39.953Z,45.40
2023-01-25T18:24:24.966Z,46.53
2023-01-25T18:26:54.493Z,37.10
2023-01-25T18:29:39.918Z,38.23
2023-01-25T18:32:08.130Z,37.73
2023-01-25T18:34:35.472Z,43.77
2023-01-25T18:37:16.985Z,41.57
2023-01-25T18:39:44.516Z,38.10
2023-01-25T18:42:11.756Z,43.03
2023-01-25T18:44:39.047Z,31.77
2023-01-25T18:47:13.032Z,41.80
2023-01-25T18:49:40.619Z,44.10
2023-01-25T18:52:11.619Z,40.87
2023-01-25T18:54:39.145Z,41.03
2023-01-25T18:57:06.970Z,36.33
2023-01-25T18:59:34.237Z,42.60
2023-01-25T19:02:01.594Z,37.77
2023-01-25T19:04:29.854Z,43.50
2023-01-25T19:06:58.033Z,43.80
2023-01-25T19:09:26.843Z,47.23
2023-01-25T19:11:54.558Z,38.70
2023-01-25T19:14:22.139Z,48.90
2023-01-25T19:16:49.427Z,45.77
2023-01-25T19:19:16.991Z,47.23
2023-01-25T19:21:45.154Z,51.23
2023-01-25T19:24:14.233Z,50.20
2023-01-25T19:26:41.889Z,48.77
2023-01-25T19:29:09.733Z,50.23
2023-01-25T19:31:37.195Z,48.77
2023-01-25T19:34:06.099Z,55.63
2023-01-25T19:36:35.805Z,47.03
2023-01-25T19:39:09.056Z,49.53
2023-01-25T19:41:38.211Z,54.50
2023-01-25T19:44:06.146Z,57.87
2023-01-25T19:46:34.876Z,52.37
2023-01-25T19:49:04.296Z,34.20
2023-01-25T19:51:33.340Z,47.47
2023-01-25T19:54:02.978Z,50.67
2023-01-25T19:56:32.819Z,53.90
2023-01-25T19:59:01.653Z,47.87
2023-01-25T20:01:29.597Z,56.33
2023-01-25T20:03:58.205Z,49.87
2023-01-25T20:06:26.374Z,52.13
2023-01-25T20:08:54.350Z,57.93
2023-01-25T20:11:24.615Z,47.67
2023-01-25T20:13:53.965Z,80.53
2023-01-25T20:16:21.786Z,73.83
2023-01-25T20:18:49.821Z,48.97
2023-01-25T20:21:18.824Z,213.27
2023-01-25T20:23:48.132Z,75.10
2023-01-25T20:26:17.478Z,94.43
2023-01-25T20:28:47.073Z,66.27
2023-01-25T20:31:22.103Z,83.63
2023-01-25T20:33:50.699Z,54.60
2023-01-25T20:36:18.140Z,234.70
2023-01-25T20:38:45.863Z,98.10
2023-01-25T20:41:14.956Z,57.80
2023-01-25T20:43:46.994Z,44.30
2023-01-25T20:46:14.656Z,53.53
2023-01-25T20:48:42.269Z,50.57
2023-01-25T20:51:12.424Z,45.73
2023-01-25T20:53:41.294Z,46.73
2023-01-25T20:56:09.366Z,56.13
2023-01-25T20:58:37.311Z,42.63
2023-01-25T21:01:14.838Z,67.40
2023-01-25T21:03:42.154Z,54.20
2023-01-25T21:06:09.907Z,54.53
2023-01-25T21:08:37.269Z,59.23
2023-01-25T21:11:04.968Z,57.20
2023-01-25T21:13:32.447Z,71.10
2023-01-25T21:16:00.933Z,61.07
2023-01-25T21:18:30.553Z,52.83
2023-01-25T21:21:05.818Z,56.90
2023-01-25T21:23:33.716Z,53.07
2023-01-25T21:26:01.639Z,44.37
2023-01-25T21:28:29.083Z,61.80
2023-01-25T21:30:56.510Z,60.27
2023-01-25T21:33:24.246Z,60.03
2023-01-25T21:35:54.454Z,55.87
2023-01-25T21:38:24.127Z,60.57
2023-01-25T21:40:51.535Z,62.43
2023-01-25T21:43:18.746Z,68.30
2023-01-25T21:46:04.119Z,66.13
2023-01-25T21:48:49.609Z,77.53
2023-01-25T21:51:35.546Z,61.43
2023-01-25T21:54:02.988Z,50.93
2023-01-25T21:56:30.534Z,83.83
2023-01-25T21:58:57.808Z,79.77
2023-01-25T22:01:25.108Z,56.70
2023-01-25T22:03:52.521Z,59.57
2023-01-25T22:06:20.539Z,63.27
2023-01-25T22:08:47.890Z,62.30
2023-01-25T22:11:15.269Z,52.90
2023-01-25T22:13:42.599Z,53.87
2023-01-25T22:16:10.794Z,68.67
2023-01-25T22:18:39.864Z,77.83
2023-01-25T22:21:12.885Z,68.23
2023-01-25T22:23:40.860Z,66.60
2023-01-25T22:26:10.663Z,73.57
2023-01-25T22:28:44.489Z,83.93
2023-01-25T22:31:11.898Z,81.00
2023-01-25T22:33:39.160Z,63.33
2023-01-25T22:36:06.985Z,75.13
2023-01-25T22:38:34.442Z,60.17
2023-01-25T22:41:07.407Z,70.67
2023-01-25T22:43:34.888Z,74.40
2023-01-25T22:46:02.587Z,87.20
2023-01-25T22:48:30.246Z,79.00
2023-01-25T22:51:01.694Z,74.53
2023-01-25T22:53:29.757Z,75.20
2023-01-25T22:56:01.067Z,82.40
2023-01-25T22:58:29.453Z,71.43
2023-01-25T23:00:56.978Z,71.67
2023-01-25T23:03:24.474Z,69.93
2023-01-25T23:05:59.517Z,80.77
2023-01-25T23:08:28.464Z,73.63
2023-01-25T23:11:00.173Z,82.83
2023-01-25T23:13:28.763Z,42.70
2023-01-25T23:16:00.508Z,62.67
2023-01-25T23:18:45.951Z,67.90
2023-01-25T23:21:13.455Z,66.70
2023-01-25T23:23:40.678Z,75.43
2023-01-25T23:26:08.261Z,74.83
2023-01-25T23:28:38.568Z,66.93
2023-01-25T23:31:21.013Z,78.30
2023-01-25T23:33:50.251Z,64.07
2023-01-25T23:36:19.591Z,70.60
2023-01-25T23:38:47.847Z,78.63
2023-01-25T23:41:16.093Z,69.70
2023-01-25T23:43:44.466Z,94.10
2023-01-25T23:46:13.488Z,79.33
2023-01-25T23:48:40.829Z,79.60
2023-01-25T23:51:10.247Z,80.17
2023-01-25T23:53:38.376Z,95.57
2023-01-25T23:56:07.653Z,89.17
2023-01-25T23:58:36.171Z,95.90
